Time;durP1;ratioP1;P1;durP2;ratioP2;P2;SDS_P1;SDS_P2;PMS_P1;PMS_P2;Temp;Humidity;BMP_temperature;BMP_pressure;BME280_temperature;BME280_humidity;BME280_pressure;Samples;Min_cycle;Max_cycle;Signal;HPM_P1;HPM_P2
2021/04/01 00:01:31;;;;;;;48.13;31.30;;;;;;;;;;5079068;28;20476;-71
2021/04/01 00:03:57;;;;;;;45.08;30.42;;;;;;;;;;5079138;28;20396;-70
2021/04/01 00:06:23;;;;;;;51.47;32.63;;;;;;;;;;5070843;28;20821;-71
2021/04/01 00:08:49;;;;;;;47.78;30.63;;;;;;;;;;5079806;28;20475;-70
2021/04/01 00:11:15;;;;;;;51.10;30.83;;;;;;;;;;5089619;28;20494;-70
2021/04/01 00:13:41;;;;;;;49.65;31.48;;;;;;;;;;5088317;28;20405;-71
2021/04/01 00:16:07;;;;;;;48.47;31.73;;;;;;;;;;5090668;28;20386;-70
2021/04/01 00:18:33;;;;;;;47.15;31.75;;;;;;;;;;5083764;28;20833;-70
2021/04/01 00:20:59;;;;;;;56.20;36.05;;;;;;;;;;5079107;28;20445;-71
2021/04/01 00:23:25;;;;;;;55.22;36.70;;;;;;;;;;5084215;28;20438;-71
2021/04/01 00:25:51;;;;;;;53.65;35.95;;;;;;;;;;5078489;28;20390;-70
2021/04/01 00:28:17;;;;;;;55.03;35.90;;;;;;;;;;5089762;28;20449;-70
2021/04/01 00:30:43;;;;;;;51.60;33.47;;;;;;;;;;5089058;28;20393;-71
2021/04/01 00:33:09;;;;;;;50.85;32.33;;;;;;;;;;5089202;28;20400;-70
2021/04/01 00:35:36;;;;;;;49.17;33.58;;;;;;;;;;5072788;28;20718;-72
2021/04/01 00:38:02;;;;;;;56.37;36.40;;;;;;;;;;5081431;28;21121;-70
2021/04/01 00:40:28;;;;;;;59.00;37.25;;;;;;;;;;5090593;28;20378;-70
2021/04/01 00:42:54;;;;;;;55.42;37.28;;;;;;;;;;5070529;28;20904;-70
2021/04/01 00:45:20;;;;;;;55.33;36.87;;;;;;;;;;5080198;28;20652;-70
2021/04/01 00:47:48;;;;;;;59.58;37.72;;;;;;;;;;5076065;28;20402;-70
2021/04/01 00:50:15;;;;;;;61.37;40.07;;;;;;;;;;5087587;28;20450;-71
2021/04/01 00:52:41;;;;;;;58.90;38.17;;;;;;;;;;5080739;28;20495;-70
2021/04/01 00:55:08;;;;;;;66.40;40.73;;;;;;;;;;5084244;28;20477;-70
2021/04/01 00:57:36;;;;;;;71.00;43.40;;;;;;;;;;5088437;28;20485;-71
2021/04/01 01:00:03;;;;;;;70.50;43.70;;;;;;;;;;5088582;28;20790;-70
2021/04/01 01:02:29;;;;;;;68.35;42.95;;;;;;;;;;5087329;28;20509;-70
2021/04/01 01:04:55;;;;;;;68.82;41.80;;;;;;;;;;5087766;28;20390;-72
2021/04/01 01:07:21;;;;;;;62.30;39.45;;;;;;;;;;5084957;28;20397;-70
2021/04/01 01:09:47;;;;;;;65.80;39.63;;;;;;;;;;5084008;28;20467;-70
2021/04/01 01:12:12;;;;;;;61.50;39.40;;;;;;;;;;5089678;28;20496;-70
2021/04/01 01:14:38;;;;;;;62.63;38.77;;;;;;;;;;5081085;28;20406;-70
2021/04/01 01:17:05;;;;;;;56.75;38.30;;;;;;;;;;5069632;28;21088;-71
2021/04/01 01:19:39;;;;;;;55.50;36.13;;;;;;;;;;5083275;28;20488;-71
2021/04/01 01:22:09;;;;;;;60.93;39.00;;;;;;;;;;5088549;28;20537;-70
2021/04/01 01:24:35;;;;;;;61.05;39.28;;;;;;;;;;5087194;28;21099;-71
2021/04/01 01:27:02;;;;;;;64.80;40.30;;;;;;;;;;5065735;28;20398;-70
2021/04/01 01:29:28;;;;;;;59.47;38.80;;;;;;;;;;5067207;28;20462;-70
2021/04/01 01:31:54;;;;;;;63.80;41.42;;;;;;;;;;5080380;28;20397;-71
2021/04/01 01:34:20;;;;;;;65.10;39.40;;;;;;;;;;5086526;28;20385;-70
2021/04/01 01:36:46;;;;;;;64.27;42.23;;;;;;;;;;5082353;28;20383;-70
2021/04/01 01:39:12;;;;;;;68.85;42.47;;;;;;;;;;5076956;28;20875;-70
2021/04/01 01:41:38;;;;;;;71.65;44.42;;;;;;;;;;5086887;28;20941;-70
2021/04/01 01:44:04;;;;;;;70.32;42.33;;;;;;;;;;5088119;28;20366;-71
2021/04/01 01:46:30;;;;;;;63.50;40.70;;;;;;;;;;5068935;28;20408;-70
2021/04/01 01:48:56;;;;;;;60.53;39.30;;;;;;;;;;5084966;28;20425;-71
2021/04/01 01:51:23;;;;;;;61.75;38.33;;;;;;;;;;5087180;28;20397;-70
2021/04/01 01:53:49;;;;;;;56.42;37.20;;;;;;;;;;5088495;28;20404;-70
2021/04/01 01:56:19;;;;;;;57.75;36.28;;;;;;;;;;5078301;28;20390;-70
2021/04/01 01:58:47;;;;;;;56.33;36.08;;;;;;;;;;5082474;28;20457;-70
2021/04/01 02:01:13;;;;;;;58.03;37.20;;;;;;;;;;5082948;28;20489;-70
2021/04/01 02:03:39;;;;;;;58.17;36.47;;;;;;;;;;5082073;28;20394;-71
2021/04/01 02:06:06;;;;;;;62.25;37.72;;;;;;;;;;5087117;28;20413;-70
2021/04/01 02:08:32;;;;;;;61.30;38.63;;;;;;;;;;5085635;28;20419;-70
2021/04/01 02:10:58;;;;;;;56.83;37.88;;;;;;;;;;5079867;28;20417;-70
2021/04/01 02:13:24;;;;;;;60.13;37.35;;;;;;;;;;5088201;28;20389;-70
2021/04/01 02:15:51;;;;;;;58.08;36.95;;;;;;;;;;5083424;28;20966;-71
2021/04/01 02:18:19;;;;;;;58.83;38.50;;;;;;;;;;5080840;28;20415;-70
2021/04/01 02:20:47;;;;;;;57.50;37.55;;;;;;;;;;5084941;28;20884;-70
2021/04/01 02:23:17;;;;;;;54.63;37.78;;;;;;;;;;5083209;28;20409;-70
2021/04/01 02:25:44;;;;;;;55.53;36.05;;;;;;;;;;5081670;28;20431;-70
2021/04/01 02:28:10;;;;;;;59.70;38.38;;;;;;;;;;5088421;28;20371;-70
2021/04/01 02:30:37;;;;;;;59.95;38.80;;;;;;;;;;5086477;28;20992;-70
2021/04/01 02:33:03;;;;;;;59.28;39.20;;;;;;;;;;5086742;28;20987;-70
2021/04/01 02:35:29;;;;;;;62.80;40.00;;;;;;;;;;5086454;28;20416;-70
2021/04/01 02:37:55;;;;;;;60.95;38.88;;;;;;;;;;5071653;28;20426;-70
2021/04/01 02:40:22;;;;;;;58.13;39.05;;;;;;;;;;5081494;28;20456;-70
2021/04/01 02:42:48;;;;;;;60.93;39.53;;;;;;;;;;5069212;28;20486;-70
2021/04/01 02:45:14;;;;;;;64.38;40.80;;;;;;;;;;5080667;28;20491;-70
2021/04/01 02:47:40;;;;;;;57.42;38.60;;;;;;;;;;5087583;28;20425;-70
2021/04/01 02:50:07;;;;;;;60.70;39.95;;;;;;;;;;5076334;28;21141;-70
2021/04/01 02:52:33;;;;;;;61.42;39.72;;;;;;;;;;5086478;28;20394;-70
2021/04/01 02:54:59;;;;;;;57.13;38.75;;;;;;;;;;5088394;28;20944;-70
2021/04/01 02:57:25;;;;;;;59.33;39.15;;;;;;;;;;5085084;28;20390;-71
2021/04/01 02:59:51;;;;;;;62.95;39.75;;;;;;;;;;5080846;28;20374;-70
2021/04/01 03:02:18;;;;;;;63.93;40.57;;;;;;;;;;5083524;28;20418;-70
2021/04/01 03:04:46;;;;;;;62.10;39.40;;;;;;;;;;5087105;28;20917;-70
2021/04/01 03:07:13;;;;;;;66.18;41.35;;;;;;;;;;5087010;28;20697;-70
2021/04/01 03:09:38;;;;;;;63.67;41.10;;;;;;;;;;5086002;28;20394;-70
2021/04/01 03:12:05;;;;;;;60.30;40.42;;;;;;;;;;5076355;28;20411;-71
2021/04/01 03:14:31;;;;;;;62.80;39.25;;;;;;;;;;5087324;28;20410;-70
2021/04/01 03:16:57;;;;;;;67.15;41.47;;;;;;;;;;5086276;28;20807;-70
2021/04/01 03:19:23;;;;;;;64.50;40.88;;;;;;;;;;5087080;28;20523;-70
2021/04/01 03:21:49;;;;;;;66.53;41.60;;;;;;;;;;5076823;28;20517;-70
2021/04/01 03:24:16;;;;;;;64.60;40.67;;;;;;;;;;5087531;28;21031;-70
2021/04/01 03:26:42;;;;;;;63.50;40.63;;;;;;;;;;5079815;28;20433;-71
2021/04/01 03:29:08;;;;;;;65.07;40.53;;;;;;;;;;5077058;28;20388;-70
2021/04/01 03:31:35;;;;;;;61.60;40.10;;;;;;;;;;5072864;28;20406;-70
2021/04/01 03:34:01;;;;;;;61.42;41.33;;;;;;;;;;5086580;28;20489;-70
2021/04/01 03:36:27;;;;;;;62.30;39.63;;;;;;;;;;5085045;28;20489;-70
2021/04/01 03:38:53;;;;;;;61.40;39.22;;;;;;;;;;5087724;28;20366;-70
2021/04/01 03:41:19;;;;;;;58.97;38.43;;;;;;;;;;5078909;28;20509;-71
2021/04/01 03:43:45;;;;;;;63.25;38.75;;;;;;;;;;5087476;28;20386;-70
2021/04/01 03:46:13;;;;;;;55.45;35.65;;;;;;;;;;5085839;28;20405;-70
2021/04/01 03:48:39;;;;;;;57.20;35.97;;;;;;;;;;5086748;28;20401;-70
2021/04/01 03:51:05;;;;;;;61.43;37.63;;;;;;;;;;5080718;28;20405;-70
2021/04/01 03:53:31;;;;;;;62.30;38.35;;;;;;;;;;5086516;28;20429;-70
2021/04/01 03:55:57;;;;;;;60.22;38.75;;;;;;;;;;5081750;28;20433;-71
2021/04/01 04:16:31;;;;;;;59.22;36.67;;;;;;;;;;5074454;28;20497;-70
2021/04/01 04:18:57;;;;;;;60.42;35.42;;;;;;;;;;5068913;28;20453;-71
2021/04/01 04:21:23;;;;;;;62.13;36.60;;;;;;;;;;5087891;28;20418;-70
2021/04/01 04:23:50;;;;;;;61.58;36.53;;;;;;;;;;5086989;28;20401;-70
2021/04/01 04:26:16;;;;;;;59.70;36.92;;;;;;;;;;5083568;28;20467;-70
2021/04/01 04:28:43;;;;;;;57.78;35.42;;;;;;;;;;5088700;28;20400;-70
2021/04/01 04:31:09;;;;;;;55.63;35.22;;;;;;;;;;5089049;28;20374;-70
2021/04/01 04:33:35;;;;;;;57.67;37.28;;;;;;;;;;5088322;28;20430;-70
2021/04/01 04:36:02;;;;;;;54.63;36.05;;;;;;;;;;5088436;28;20873;-70
2021/04/01 04:38:28;;;;;;;57.75;35.42;;;;;;;;;;5089508;28;20867;-70
2021/04/01 04:40:56;;;;;;;55.97;34.85;;;;;;;;;;5070342;28;20398;-70
2021/04/01 04:43:23;;;;;;;58.88;35.47;;;;;;;;;;5089927;28;20413;-70
2021/04/01 04:45:49;;;;;;;58.30;35.75;;;;;;;;;;5072110;28;20806;-70
2021/04/01 04:48:15;;;;;;;56.22;36.50;;;;;;;;;;5087222;28;20402;-70
2021/04/01 04:50:41;;;;;;;57.67;36.90;;;;;;;;;;5083913;28;20427;-70
2021/04/01 04:53:07;;;;;;;56.63;35.22;;;;;;;;;;5088040;28;20877;-70
2021/04/01 04:55:33;;;;;;;59.55;35.83;;;;;;;;;;5090200;28;20385;-70
2021/04/01 05:05:58;;;;;;;59.97;37.17;;;;;;;;;;5086568;28;20396;-70
2021/04/01 05:08:25;;;;;;;57.40;35.95;;;;;;;;;;5087415;28;20473;-70
2021/04/01 05:10:51;;;;;;;57.17;35.40;;;;;;;;;;5088878;28;20474;-70
2021/04/01 05:13:19;;;;;;;55.53;34.42;;;;;;;;;;5079473;28;20399;-70
2021/04/01 05:15:49;;;;;;;55.70;34.28;;;;;;;;;;5073601;28;20405;-70
2021/04/01 05:20:52;;;;;;;57.40;34.20;;;;;;;;;;5089941;28;20457;-70
2021/04/01 05:28:36;;;;;;;66.10;38.38;;;;;;;;;;5086842;28;20427;-70
2021/04/01 05:31:05;;;;;;;60.92;38.53;;;;;;;;;;5089048;28;20381;-70
2021/04/01 05:33:35;;;;;;;64.40;39.58;;;;;;;;;;5085585;28;20414;-70
2021/04/01 05:36:04;;;;;;;62.50;39.75;;;;;;;;;;5077578;28;20452;-71
2021/04/01 05:38:32;;;;;;;74.93;44.75;;;;;;;;;;5077691;28;20399;-71
2021/04/01 05:40:58;;;;;;;68.00;41.75;;;;;;;;;;5088405;28;20701;-70
2021/04/01 05:43:26;;;;;;;72.45;43.20;;;;;;;;;;5088060;28;20419;-70
2021/04/01 05:46:01;;;;;;;73.57;43.67;;;;;;;;;;5088830;28;20385;-70
2021/04/01 05:48:38;;;;;;;68.82;41.20;;;;;;;;;;5078783;28;20400;-71
2021/04/01 05:51:33;;;;;;;70.40;42.33;;;;;;;;;;5084364;28;20393;-70
2021/04/01 05:59:24;;;;;;;73.53;44.38;;;;;;;;;;5081253;28;20418;-71
2021/04/01 06:04:36;;;;;;;83.63;47.85;;;;;;;;;;5082520;28;20402;-71
2021/04/01 06:07:13;;;;;;;85.50;49.17;;;;;;;;;;5074932;28;20384;-71
2021/04/01 06:09:43;;;;;;;82.72;46.88;;;;;;;;;;5068081;28;20391;-70
2021/04/01 06:12:10;;;;;;;84.32;48.47;;;;;;;;;;5081975;28;20424;-71
2021/04/01 06:14:36;;;;;;;82.70;48.75;;;;;;;;;;5086406;28;20771;-71
2021/04/01 06:17:06;;;;;;;87.47;50.80;;;;;;;;;;5087059;28;20876;-71
2021/04/01 06:19:33;;;;;;;90.00;52.92;;;;;;;;;;5086828;28;20401;-71
2021/04/01 06:22:04;;;;;;;89.60;53.17;;;;;;;;;;5087281;28;20421;-72
2021/04/01 06:24:30;;;;;;;86.90;50.20;;;;;;;;;;5087711;28;20390;-70
2021/04/01 06:27:50;;;;;;;91.50;54.08;;;;;;;;;;5083731;28;20382;-71
2021/04/01 06:32:57;;;;;;;92.55;55.67;;;;;;;;;;5081012;28;20450;-71
2021/04/01 06:35:31;;;;;;;96.40;55.97;;;;;;;;;;5087094;28;20477;-70
2021/04/01 06:40:44;;;;;;;103.37;57.30;;;;;;;;;;5067567;28;20479;-72
2021/04/01 06:43:21;;;;;;;112.37;62.83;;;;;;;;;;5077313;28;20438;-72
2021/04/01 06:46:05;;;;;;;114.63;65.35;;;;;;;;;;5074190;28;20998;-71
2021/04/01 06:51:36;;;;;;;113.32;65.35;;;;;;;;;;5080121;28;20747;-71
2021/04/01 06:57:24;;;;;;;137.77;80.03;;;;;;;;;;5085292;28;20408;-71
2021/04/01 06:59:48;;;;;;;127.90;77.90;;;;;;;;;;5070471;28;20398;-71
2021/04/01 07:04:47;;;;;;;134.05;81.75;;;;;;;;;;5077860;28;20834;-70
2021/04/01 07:07:15;;;;;;;138.90;83.93;;;;;;;;;;5087572;28;20362;-71
2021/04/01 07:12:34;;;;;;;130.35;80.18;;;;;;;;;;5077046;28;20894;-71
2021/04/01 07:15:12;;;;;;;127.93;80.45;;;;;;;;;;5074684;28;20413;-72
2021/04/01 07:17:41;;;;;;;127.65;79.05;;;;;;;;;;5084229;28;20734;-71
2021/04/01 07:20:26;;;;;;;131.40;79.90;;;;;;;;;;5076341;28;21108;-71
2021/04/01 07:31:55;;;;;;;125.68;78.65;;;;;;;;;;5085340;28;20378;-72
2021/04/01 07:48:01;;;;;;;110.65;73.25;;;;;;;;;;5081382;28;20431;-71
2021/04/01 07:50:36;;;;;;;109.50;72.00;;;;;;;;;;5085628;28;20397;-71
2021/04/01 07:53:03;;;;;;;115.90;73.53;;;;;;;;;;5085614;28;20844;-71
2021/04/01 07:55:37;;;;;;;111.20;72.13;;;;;;;;;;5078241;28;20421;-71
2021/04/01 08:03:51;;;;;;;106.03;70.28;;;;;;;;;;5086563;28;20486;-71
2021/04/01 08:06:06;;;;;;;108.28;69.20;;;;;;;;;;5086601;28;20930;-71
2021/04/01 08:08:37;;;;;;;98.07;65.88;;;;;;;;;;5088141;28;20389;-71
2021/04/01 08:11:06;;;;;;;97.45;63.35;;;;;;;;;;5084393;28;20444;-71
2021/04/01 08:13:35;;;;;;;92.97;60.90;;;;;;;;;;5084518;28;20428;-71
2021/04/01 08:16:04;;;;;;;80.00;54.15;;;;;;;;;;5081711;28;20409;-71
2021/04/01 08:18:36;;;;;;;73.43;49.22;;;;;;;;;;5084533;28;20451;-71
2021/04/01 08:21:07;;;;;;;72.75;46.33;;;;;;;;;;5084198;28;20714;-71
2021/04/01 08:23:39;;;;;;;58.70;35.95;;;;;;;;;;5077414;28;20869;-71
2021/04/01 08:31:55;;;;;;;44.63;27.75;;;;;;;;;;5075130;28;20412;-71
2021/04/01 08:36:54;;;;;;;44.80;26.27;;;;;;;;;;5085132;28;20486;-71
2021/04/01 08:39:22;;;;;;;38.10;22.20;;;;;;;;;;5078916;28;20510;-71
2021/04/01 08:42:06;;;;;;;36.92;21.20;;;;;;;;;;5089978;28;20465;-71
2021/04/01 08:44:51;;;;;;;33.40;19.00;;;;;;;;;;5080667;28;20433;-71
2021/04/01 08:47:36;;;;;;;31.30;17.88;;;;;;;;;;5079550;28;20919;-71
2021/04/01 08:50:31;;;;;;;26.20;14.13;;;;;;;;;;5079331;28;21043;-71
2021/04/01 08:52:59;;;;;;;28.67;12.98;;;;;;;;;;5088428;28;20417;-71
2021/04/01 08:55:33;;;;;;;22.85;11.45;;;;;;;;;;5083274;28;20399;-71
2021/04/01 08:58:02;;;;;;;20.90;10.32;;;;;;;;;;5069647;28;20367;-71
2021/04/01 09:00:30;;;;;;;16.70;8.57;;;;;;;;;;5063111;28;20443;-71
2021/04/01 09:02:56;;;;;;;15.02;7.50;;;;;;;;;;5082740;28;20417;-71
2021/04/01 09:05:23;;;;;;;18.75;6.75;;;;;;;;;;5084630;28;20390;-71
2021/04/01 09:07:51;;;;;;;15.70;6.93;;;;;;;;;;5086332;28;20477;-72
2021/04/01 09:10:29;;;;;;;17.73;6.60;;;;;;;;;;5084938;28;20410;-71
2021/04/01 09:13:12;;;;;;;15.85;6.28;;;;;;;;;;5077311;28;20430;-71
2021/04/01 09:15:47;;;;;;;16.40;6.30;;;;;;;;;;5075401;28;20382;-71
2021/04/01 09:18:20;;;;;;;13.77;5.30;;;;;;;;;;5083391;28;20405;-71
2021/04/01 09:20:47;;;;;;;12.30;4.60;;;;;;;;;;5089181;28;20790;-71
2021/04/01 09:23:14;;;;;;;10.88;3.85;;;;;;;;;;5087440;28;20398;-71
2021/04/01 09:25:41;;;;;;;12.52;4.50;;;;;;;;;;5086779;28;20907;-71
2021/04/01 09:28:08;;;;;;;13.88;4.10;;;;;;;;;;5079621;28;20834;-71
2021/04/01 09:30:34;;;;;;;11.93;4.03;;;;;;;;;;5081105;28;20420;-73
2021/04/01 09:33:05;;;;;;;10.82;3.50;;;;;;;;;;5083381;28;20383;-74
2021/04/01 09:35:33;;;;;;;13.85;3.42;;;;;;;;;;5088569;28;20457;-73
2021/04/01 09:38:09;;;;;;;9.15;3.00;;;;;;;;;;5070003;28;20397;-73
2021/04/01 09:40:38;;;;;;;11.60;3.17;;;;;;;;;;5086946;28;20382;-73
2021/04/01 09:43:08;;;;;;;8.68;3.25;;;;;;;;;;5087388;28;20478;-73
2021/04/01 09:45:34;;;;;;;10.63;2.95;;;;;;;;;;5082230;28;20855;-73
2021/04/01 09:48:03;;;;;;;12.85;3.22;;;;;;;;;;5086188;28;20443;-73
2021/04/01 09:50:30;;;;;;;10.63;2.63;;;;;;;;;;5088009;28;20432;-73
2021/04/01 09:52:58;;;;;;;10.52;2.80;;;;;;;;;;5088303;28;20431;-72
2021/04/01 09:55:24;;;;;;;12.13;3.22;;;;;;;;;;5079504;28;20397;-71
2021/04/01 09:57:51;;;;;;;11.20;2.85;;;;;;;;;;5083406;28;20410;-71
2021/04/01 10:00:22;;;;;;;10.07;3.22;;;;;;;;;;5075536;28;20386;-71
2021/04/01 10:02:56;;;;;;;9.68;2.78;;;;;;;;;;5066158;28;20461;-73
2021/04/01 10:05:22;;;;;;;10.13;2.63;;;;;;;;;;5085503;28;20416;-71
2021/04/01 10:07:56;;;;;;;10.73;3.03;;;;;;;;;;5083486;28;20392;-70
2021/04/01 10:10:36;;;;;;;13.13;3.35;;;;;;;;;;5068408;28;20484;-71
2021/04/01 10:13:02;;;;;;;10.02;2.78;;;;;;;;;;5072395;28;20465;-71
2021/04/01 10:15:31;;;;;;;12.93;3.20;;;;;;;;;;5079943;28;20902;-71
2021/04/01 10:18:01;;;;;;;10.70;3.03;;;;;;;;;;5070776;28;20936;-71
2021/04/01 10:20:27;;;;;;;9.77;2.47;;;;;;;;;;5079774;28;20463;-71
2021/04/01 10:23:04;;;;;;;11.85;3.08;;;;;;;;;;5081988;28;20471;-71
2021/04/01 10:25:32;;;;;;;10.98;3.25;;;;;;;;;;5081075;28;20728;-72
2021/04/01 10:28:09;;;;;;;10.40;3.20;;;;;;;;;;5073907;28;20840;-71
2021/04/01 10:30:36;;;;;;;12.27;3.63;;;;;;;;;;5087588;28;20382;-71
2021/04/01 10:33:18;;;;;;;16.35;3.55;;;;;;;;;;5078569;28;20398;-71
2021/04/01 10:35:48;;;;;;;12.90;3.50;;;;;;;;;;5067366;28;20474;-71
2021/04/01 10:38:18;;;;;;;14.30;3.97;;;;;;;;;;5067784;28;20380;-71
2021/04/01 10:40:46;;;;;;;11.87;3.50;;;;;;;;;;5083571;28;21128;-71
2021/04/01 10:43:13;;;;;;;12.10;3.70;;;;;;;;;;5087943;28;20911;-71
2021/04/01 10:45:46;;;;;;;18.23;4.00;;;;;;;;;;5088012;28;20366;-72
2021/04/01 10:48:33;;;;;;;18.17;4.07;;;;;;;;;;5080814;28;20383;-71
2021/04/01 10:51:03;;;;;;;16.10;4.43;;;;;;;;;;5083223;28;20416;-71
2021/04/01 10:53:30;;;;;;;16.52;3.92;;;;;;;;;;5085108;28;20798;-70
2021/04/01 10:56:05;;;;;;;17.13;3.97;;;;;;;;;;5077074;28;20962;-72
2021/04/01 10:58:33;;;;;;;17.20;4.55;;;;;;;;;;5078560;28;20400;-73
2021/04/01 11:01:00;;;;;;;16.38;4.45;;;;;;;;;;5083162;28;20394;-72
2021/04/01 11:03:27;;;;;;;16.98;4.45;;;;;;;;;;5077823;28;21056;-74
2021/04/01 11:05:53;;;;;;;17.77;4.35;;;;;;;;;;5079165;28;20394;-72
2021/04/01 11:08:21;;;;;;;16.45;4.70;;;;;;;;;;5082245;28;20875;-72
2021/04/01 11:10:48;;;;;;;18.33;4.82;;;;;;;;;;5082465;28;20456;-72
2021/04/01 11:13:15;;;;;;;18.55;4.25;;;;;;;;;;5083967;28;20475;-72
2021/04/01 11:15:43;;;;;;;16.25;4.45;;;;;;;;;;5078816;28;20395;-72
2021/04/01 11:18:20;;;;;;;13.48;4.10;;;;;;;;;;5082100;28;20891;-71
2021/04/01 11:20:51;;;;;;;14.00;3.78;;;;;;;;;;5080738;28;20869;-72
2021/04/01 11:23:19;;;;;;;12.73;3.70;;;;;;;;;;5077092;28;20433;-73
2021/04/01 11:25:54;;;;;;;9.77;3.47;;;;;;;;;;5081200;28;20390;-72
2021/04/01 11:28:40;;;;;;;10.83;2.90;;;;;;;;;;5083024;28;20787;-72
2021/04/01 11:31:07;;;;;;;6.90;2.10;;;;;;;;;;5087644;28;20458;-72
2021/04/01 11:33:36;;;;;;;8.73;2.63;;;;;;;;;;5086458;28;20845;-72
2021/04/01 11:36:14;;;;;;;7.97;2.38;;;;;;;;;;5081903;28;20401;-72
2021/04/01 11:38:43;;;;;;;8.95;2.90;;;;;;;;;;5089037;28;20935;-72
2021/04/01 11:41:09;;;;;;;9.20;2.60;;;;;;;;;;5082411;28;20391;-71
2021/04/01 11:43:36;;;;;;;9.82;3.13;;;;;;;;;;5087941;28;20463;-72
2021/04/01 11:46:15;;;;;;;12.20;3.15;;;;;;;;;;5087002;28;20397;-72
2021/04/01 11:48:43;;;;;;;8.30;2.90;;;;;;;;;;5072256;28;20402;-71
2021/04/01 11:51:13;;;;;;;9.45;2.55;;;;;;;;;;5094978;28;20396;-71
2021/04/01 11:53:40;;;;;;;9.00;2.35;;;;;;;;;;5086645;28;20382;-71
2021/04/01 11:56:06;;;;;;;15.55;3.20;;;;;;;;;;5082620;28;20775;-72
2021/04/01 11:58:32;;;;;;;7.45;2.15;;;;;;;;;;5088047;28;20393;-72
2021/04/01 12:01:05;;;;;;;9.55;2.72;;;;;;;;;;5089405;28;20400;-72
2021/04/01 12:04:17;;;;;;;12.35;3.00;;;;;;;;;;5082624;28;20413;-72
2021/04/01 12:06:18;;;;;;;9.75;2.75;;;;;;;;;;5067544;28;20688;-73
2021/04/01 12:08:46;;;;;;;10.75;2.97;;;;;;;;;;5072936;28;20435;-73
2021/04/01 12:11:12;;;;;;;11.97;3.20;;;;;;;;;;5085665;28;20493;-72
2021/04/01 12:13:38;;;;;;;10.82;3.35;;;;;;;;;;5087381;28;20382;-72
2021/04/01 12:16:14;;;;;;;10.82;2.97;;;;;;;;;;5084047;28;20758;-72
2021/04/01 12:18:41;;;;;;;10.50;3.30;;;;;;;;;;5090455;28;20458;-72
2021/04/01 12:21:07;;;;;;;14.40;3.53;;;;;;;;;;5056732;28;20392;-72
2021/04/01 12:23:41;;;;;;;13.68;3.17;;;;;;;;;;5082591;28;20403;-72
2021/04/01 12:26:07;;;;;;;10.48;3.08;;;;;;;;;;5086103;28;20455;-72
2021/04/01 12:28:33;;;;;;;11.57;2.83;;;;;;;;;;5075836;28;20726;-73
2021/04/01 12:30:59;;;;;;;11.63;3.05;;;;;;;;;;5076029;28;20398;-72
2021/04/01 12:33:26;;;;;;;11.25;2.75;;;;;;;;;;5087332;28;21151;-72
2021/04/01 12:35:59;;;;;;;9.20;2.53;;;;;;;;;;5085965;28;20390;-72
2021/04/01 12:38:28;;;;;;;10.77;2.63;;;;;;;;;;5083032;28;20401;-71
2021/04/01 12:40:54;;;;;;;10.27;3.15;;;;;;;;;;5087014;28;20390;-72
2021/04/01 12:43:20;;;;;;;11.30;2.92;;;;;;;;;;5086161;28;20916;-73
2021/04/01 12:45:54;;;;;;;9.83;2.83;;;;;;;;;;5076610;28;20414;-72
2021/04/01 12:48:20;;;;;;;10.68;2.85;;;;;;;;;;5090260;28;20370;-72
2021/04/01 12:50:47;;;;;;;10.60;2.80;;;;;;;;;;5083442;28;20422;-72
2021/04/01 12:53:16;;;;;;;11.80;3.30;;;;;;;;;;5081309;28;20828;-73
2021/04/01 12:58:22;;;;;;;11.05;3.00;;;;;;;;;;5082929;28;20517;-72
2021/04/01 13:00:52;;;;;;;13.32;2.80;;;;;;;;;;5086456;28;20394;-72
2021/04/01 13:03:18;;;;;;;11.90;2.95;;;;;;;;;;5088950;28;20924;-72
2021/04/01 13:05:48;;;;;;;12.25;2.85;;;;;;;;;;5079002;28;20471;-73
2021/04/01 13:10:45;;;;;;;12.63;3.07;;;;;;;;;;5088561;28;20563;-72
2021/04/01 13:13:12;;;;;;;12.40;2.95;;;;;;;;;;5081174;28;20398;-72
2021/04/01 13:15:38;;;;;;;12.45;2.85;;;;;;;;;;5078151;28;20492;-72
2021/04/01 13:18:05;;;;;;;10.77;2.70;;;;;;;;;;5085290;28;20419;-72
2021/04/01 13:20:31;;;;;;;10.07;2.65;;;;;;;;;;5081725;28;20478;-72
2021/04/01 13:25:26;;;;;;;11.50;3.03;;;;;;;;;;5088902;28;20413;-73
2021/04/01 13:27:53;;;;;;;11.10;2.80;;;;;;;;;;5081932;28;20402;-72
2021/04/01 13:30:21;;;;;;;10.13;2.63;;;;;;;;;;5080103;28;20382;-72
2021/04/01 13:33:11;;;;;;;14.50;3.20;;;;;;;;;;5082454;28;20391;-73
2021/04/01 13:35:54;;;;;;;10.40;2.75;;;;;;;;;;5079189;28;20426;-72
2021/04/01 13:38:23;;;;;;;12.02;3.05;;;;;;;;;;5078022;28;20411;-72
2021/04/01 13:40:51;;;;;;;13.93;3.40;;;;;;;;;;5079547;28;20679;-72
2021/04/01 13:43:21;;;;;;;9.32;2.53;;;;;;;;;;5079028;28;20457;-75
2021/04/01 13:45:47;;;;;;;14.35;3.13;;;;;;;;;;5080632;28;20394;-72
2021/04/01 13:48:17;;;;;;;9.88;2.83;;;;;;;;;;5082665;28;20884;-72
2021/04/01 13:50:52;;;;;;;11.88;2.90;;;;;;;;;;5082789;28;20494;-72
2021/04/01 13:55:48;;;;;;;13.38;3.20;;;;;;;;;;5086598;28;21971;-73
2021/04/01 13:58:56;;;;;;;10.45;3.00;;;;;;;;;;5083049;28;20413;-72
2021/04/01 14:08:53;;;;;;;13.02;3.53;;;;;;;;;;5084628;28;21473;-73
2021/04/01 14:09:56;;;;;;;8.98;2.75;;;;;;;;;;5081586;28;20763;-72
2021/04/01 14:12:23;;;;;;;11.67;3.07;;;;;;;;;;5083477;28;20425;-72
2021/04/01 14:14:49;;;;;;;10.00;2.70;;;;;;;;;;5085730;28;20402;-71
2021/04/01 14:17:16;;;;;;;13.13;3.25;;;;;;;;;;5082839;28;20444;-71
2021/04/01 14:19:43;;;;;;;11.50;3.40;;;;;;;;;;5081257;28;20878;-72
2021/04/01 14:22:09;;;;;;;13.63;2.78;;;;;;;;;;5082159;28;20423;-72
2021/04/01 14:24:39;;;;;;;10.10;2.70;;;;;;;;;;5086309;28;20523;-71
2021/04/01 14:29:33;;;;;;;10.27;3.00;;;;;;;;;;5081150;28;20403;-72
2021/04/01 14:32:00;;;;;;;14.05;3.05;;;;;;;;;;5082581;28;20396;-72
2021/04/01 14:34:27;;;;;;;14.13;3.25;;;;;;;;;;5081074;28;20409;-71
2021/04/01 14:36:56;;;;;;;13.37;3.30;;;;;;;;;;5083149;28;20485;-71
2021/04/01 14:39:25;;;;;;;14.40;3.60;;;;;;;;;;5088191;28;20753;-72
2021/04/01 14:41:58;;;;;;;14.18;3.88;;;;;;;;;;5083880;28;20418;-71
2021/04/01 14:44:25;;;;;;;13.23;3.70;;;;;;;;;;5087896;28;20523;-72
2021/04/01 14:46:51;;;;;;;14.57;3.88;;;;;;;;;;5081030;28;20382;-72
2021/04/01 14:49:18;;;;;;;13.32;4.10;;;;;;;;;;5085901;28;20508;-72
2021/04/01 14:51:44;;;;;;;19.50;4.22;;;;;;;;;;5083181;28;20374;-72
2021/04/01 14:54:13;;;;;;;11.07;3.72;;;;;;;;;;5084573;28;20386;-73
2021/04/01 14:56:46;;;;;;;15.02;4.07;;;;;;;;;;5084187;28;20453;-71
2021/04/01 14:59:16;;;;;;;13.35;4.25;;;;;;;;;;5087423;28;20863;-71
2021/04/01 15:01:42;;;;;;;14.77;4.43;;;;;;;;;;5086040;28;20420;-72
2021/04/01 15:04:09;;;;;;;12.18;4.53;;;;;;;;;;5086391;28;20425;-72
2021/04/01 15:06:35;;;;;;;13.80;4.15;;;;;;;;;;5075804;28;20427;-72
2021/04/01 15:09:02;;;;;;;15.32;3.97;;;;;;;;;;5073108;28;20399;-71
2021/04/01 15:11:28;;;;;;;16.73;4.30;;;;;;;;;;5080076;28;20426;-72
2021/04/01 15:13:54;;;;;;;17.85;4.30;;;;;;;;;;5080598;28;20433;-71
2021/04/01 15:16:23;;;;;;;14.38;3.97;;;;;;;;;;5070721;28;20431;-72
2021/04/01 15:18:49;;;;;;;16.65;4.18;;;;;;;;;;5082581;28;20903;-72
2021/04/01 15:21:17;;;;;;;13.38;3.95;;;;;;;;;;5082260;28;20497;-74
2021/04/01 15:23:43;;;;;;;14.03;4.30;;;;;;;;;;5093319;28;20917;-72
2021/04/01 15:26:09;;;;;;;15.23;3.75;;;;;;;;;;5092549;28;20466;-72
2021/04/01 15:28:35;;;;;;;14.32;4.00;;;;;;;;;;5087973;28;20988;-72
2021/04/01 15:31:01;;;;;;;14.93;4.17;;;;;;;;;;5084041;28;20374;-71
2021/04/01 15:33:27;;;;;;;16.42;4.15;;;;;;;;;;5087528;28;20374;-72
2021/04/01 15:35:53;;;;;;;16.85;3.90;;;;;;;;;;5087317;28;20370;-73
2021/04/01 15:38:19;;;;;;;15.77;4.35;;;;;;;;;;5088073;28;20753;-72
2021/04/01 15:40:45;;;;;;;11.93;4.15;;;;;;;;;;5072389;28;20387;-71
2021/04/01 15:43:14;;;;;;;14.85;3.78;;;;;;;;;;5050346;28;20857;-72
2021/04/01 15:45:40;;;;;;;13.45;3.63;;;;;;;;;;5077250;28;20392;-71
2021/04/01 15:48:07;;;;;;;14.18;3.90;;;;;;;;;;5085325;28;20810;-71
2021/04/01 15:50:33;;;;;;;10.93;3.60;;;;;;;;;;5075474;28;20410;-72
2021/04/01 15:52:59;;;;;;;11.68;3.72;;;;;;;;;;5075502;28;21002;-70
2021/04/01 15:55:25;;;;;;;12.80;3.90;;;;;;;;;;5077135;28;20858;-70
2021/04/01 15:57:51;;;;;;;13.85;3.92;;;;;;;;;;5078119;28;20401;-71
2021/04/01 16:00:18;;;;;;;13.93;3.80;;;;;;;;;;5077253;28;20394;-72
2021/04/01 16:02:44;;;;;;;13.82;3.60;;;;;;;;;;5078103;28;20520;-71
2021/04/01 16:05:10;;;;;;;15.40;3.57;;;;;;;;;;5079886;28;20506;-71
2021/04/01 16:07:38;;;;;;;13.23;3.47;;;;;;;;;;5082365;28;20407;-73
2021/04/01 16:10:04;;;;;;;13.25;3.35;;;;;;;;;;5080692;28;20849;-71
2021/04/01 16:12:30;;;;;;;10.57;3.20;;;;;;;;;;5082202;28;20394;-71
2021/04/01 16:14:57;;;;;;;12.57;3.30;;;;;;;;;;5079937;28;20442;-70
2021/04/01 16:17:23;;;;;;;9.77;3.15;;;;;;;;;;5077844;28;20737;-70
2021/04/01 16:19:49;;;;;;;13.03;3.70;;;;;;;;;;5070801;28;20489;-71
2021/04/01 16:22:15;;;;;;;12.00;3.17;;;;;;;;;;5083147;28;20800;-70
2021/04/01 16:24:41;;;;;;;12.38;3.45;;;;;;;;;;5090683;28;20440;-70
2021/04/01 16:27:09;;;;;;;11.18;3.25;;;;;;;;;;5090647;28;20386;-70